Time;durP1;ratioP1;P1;durP2;ratioP2;P2;SDS_P1;SDS_P2;PMS_P1;PMS_P2;Temp;Humidity;BMP_temperature;BMP_pressure;BME280_temperature;BME280_humidity;BME280_pressure;Samples;Min_cycle;Max_cycle;Signal;HPM_P1;HPM_P2
2022/03/13 00:00:25;;;;;;;3.83;3.42;;;;;;;11.03;41.50;100492.98;1825848;78;21009;-65
2022/03/13 00:02:55;;;;;;;4.08;3.67;;;;;;;11.01;41.49;100485.66;1817608;78;21209;-65
2022/03/13 00:05:22;;;;;;;4.78;3.70;;;;;;;11.00;41.50;100484.80;1794299;78;21046;-64
2022/03/13 00:07:48;;;;;;;4.45;3.30;;;;;;;11.00;41.52;100482.64;1793348;80;21013;-64
2022/03/13 00:10:18;;;;;;;4.28;3.45;;;;;;;11.00;41.54;100483.97;1793204;79;21072;-63
2022/03/13 00:12:48;;;;;;;5.25;3.77;;;;;;;10.98;41.56;100484.61;1793370;80;21076;-65
2022/03/13 00:15:16;;;;;;;4.67;3.65;;;;;;;10.99;41.52;100484.94;1793345;80;21216;-65
2022/03/13 00:17:44;;;;;;;3.95;3.45;;;;;;;10.97;41.57;100486.45;1773988;80;21100;-64
2022/03/13 00:20:12;;;;;;;4.70;3.55;;;;;;;10.97;41.59;100487.78;1794341;78;20997;-65
2022/03/13 00:22:39;;;;;;;3.45;3.12;;;;;;;10.96;41.61;100482.10;1793344;79;21019;-64
2022/03/13 00:25:09;;;;;;;3.98;3.60;;;;;;;10.98;41.62;100492.09;1793757;80;21485;-65
2022/03/13 00:27:38;;;;;;;4.35;3.75;;;;;;;10.97;41.62;100492.23;1793417;79;21119;-65
2022/03/13 00:30:06;;;;;;;4.72;3.52;;;;;;;10.96;41.63;100485.27;1793368;80;21080;-65
2022/03/13 00:32:33;;;;;;;4.30;3.50;;;;;;;10.96;41.65;100479.95;1793395;80;21001;-64
2022/03/13 00:34:59;;;;;;;4.90;3.70;;;;;;;10.96;41.67;100483.94;1793622;80;21540;-64
2022/03/13 00:37:25;;;;;;;4.40;3.47;;;;;;;10.96;41.67;100483.43;1795228;78;21006;-65
2022/03/13 00:39:54;;;;;;;5.28;3.85;;;;;;;10.95;41.67;100481.78;1825874;78;21301;-64
2022/03/13 00:42:21;;;;;;;4.30;3.15;;;;;;;10.95;41.67;100487.56;1825905;78;21037;-65
2022/03/13 00:44:49;;;;;;;5.62;4.10;;;;;;;10.95;41.70;100488.89;1826074;78;21485;-65
2022/03/13 00:47:19;;;;;;;4.28;3.40;;;;;;;10.95;41.70;100486.23;1826216;78;20986;-64
2022/03/13 00:49:50;;;;;;;5.72;4.00;;;;;;;10.94;41.73;100487.23;1825910;78;21035;-65
2022/03/13 00:52:17;;;;;;;4.80;3.70;;;;;;;10.94;41.73;100484.58;1825776;78;21256;-65
2022/03/13 00:54:44;;;;;;;4.50;3.50;;;;;;;10.95;41.73;100492.88;1824708;78;20970;-64
2022/03/13 00:57:10;;;;;;;4.25;3.55;;;;;;;10.94;41.76;100496.05;1818834;78;21690;-65
2022/03/13 00:59:37;;;;;;;5.28;4.40;;;;;;;10.93;41.78;100493.53;1818264;78;21028;-64
2022/03/13 01:02:04;;;;;;;5.85;4.15;;;;;;;10.92;41.78;100496.69;1814014;79;21027;-64
2022/03/13 01:04:32;;;;;;;5.03;3.77;;;;;;;10.92;41.78;100491.37;1813961;79;21178;-64
2022/03/13 01:06:59;;;;;;;3.80;3.22;;;;;;;10.92;41.79;100495.36;1813976;79;21312;-65
2022/03/13 01:09:26;;;;;;;4.20;3.47;;;;;;;10.92;41.81;100497.20;1813847;78;20993;-64
2022/03/13 01:11:52;;;;;;;4.62;3.95;;;;;;;10.91;41.81;100496.84;1822392;78;21025;-65
2022/03/13 01:14:20;;;;;;;4.70;3.60;;;;;;;10.91;41.84;100502.98;1802002;79;21103;-65
2022/03/13 01:16:49;;;;;;;4.00;3.60;;;;;;;10.91;41.84;100500.82;1802104;79;21277;-65
2022/03/13 01:19:16;;;;;;;4.20;3.50;;;;;;;10.90;41.85;100497.34;1801883;79;20989;-65
2022/03/13 01:21:43;;;;;;;5.40;3.87;;;;;;;10.90;41.85;100500.00;1802131;79;21028;-66
2022/03/13 01:24:15;;;;;;;5.55;3.55;;;;;;;10.90;41.88;100501.83;1802071;79;21017;-64
2022/03/13 01:26:43;;;;;;;4.58;3.55;;;;;;;10.89;41.87;100499.64;1802193;79;21026;-64
2022/03/13 01:29:12;;;;;;;4.83;3.92;;;;;;;10.89;41.90;100498.81;1803216;78;21293;-64
2022/03/13 01:31:46;;;;;;;4.00;3.37;;;;;;;10.89;41.90;100504.13;1802057;79;21040;-64
2022/03/13 01:34:38;;;;;;;4.33;3.62;;;;;;;10.88;41.93;100499.81;1801988;79;21001;-65
2022/03/13 01:37:14;;;;;;;4.85;3.98;;;;;;;10.87;41.94;100505.60;1803941;78;21008;-64
2022/03/13 01:39:42;;;;;;;6.33;3.98;;;;;;;10.85;41.93;100510.23;1834893;78;21001;-65
2022/03/13 01:42:08;;;;;;;5.17;4.05;;;;;;;10.85;41.97;100508.08;1834850;78;21207;-64
2022/03/13 01:44:35;;;;;;;4.12;3.52;;;;;;;10.84;41.97;100507.76;1792318;78;21028;-65
2022/03/13 01:47:03;;;;;;;4.90;3.83;;;;;;;10.85;41.97;100510.23;1833886;78;21025;-64
2022/03/13 01:49:29;;;;;;;4.03;3.37;;;;;;;10.82;42.01;100511.38;1834787;78;21076;-64
2022/03/13 01:51:57;;;;;;;5.20;4.00;;;;;;;10.82;42.00;100514.05;1834811;77;21041;-64
2022/03/13 01:54:24;;;;;;;3.92;3.27;;;;;;;10.83;42.03;100513.55;1834751;78;21234;-64
2022/03/13 01:56:50;;;;;;;5.35;3.90;;;;;;;10.82;42.04;100517.20;1818516;78;21051;-64
2022/03/13 01:59:17;;;;;;;5.00;3.87;;;;;;;10.82;42.06;100522.52;1834783;78;21008;-64
2022/03/13 02:01:44;;;;;;;6.00;4.00;;;;;;;10.81;42.06;100517.67;1834732;78;20974;-66
2022/03/13 02:04:12;;;;;;;3.95;3.58;;;;;;;10.81;42.07;100521.66;1830241;78;21750;-65
2022/03/13 02:06:39;;;;;;;5.05;3.65;;;;;;;10.81;42.07;100520.33;1834513;77;21148;-64
2022/03/13 02:09:07;;;;;;;5.85;4.05;;;;;;;10.81;42.09;100521.66;1834631;78;21021;-64
2022/03/13 02:11:40;;;;;;;5.33;3.62;;;;;;;10.80;42.09;100523.16;1832530;77;20977;-64
2022/03/13 02:14:11;;;;;;;6.07;4.20;;;;;;;10.80;42.10;100527.16;1832227;77;21504;-64
2022/03/13 02:16:37;;;;;;;4.08;3.45;;;;;;;10.80;42.13;100526.65;1831988;77;21114;-64
2022/03/13 02:19:05;;;;;;;5.08;3.20;;;;;;;10.79;42.12;100535.59;1830311;78;21230;-65
2022/03/13 02:21:48;;;;;;;4.67;3.87;;;;;;;10.79;42.14;100534.77;1799030;79;20998;-65
2022/03/13 02:24:13;;;;;;;5.35;3.62;;;;;;;10.79;42.14;100534.27;1798950;79;21437;-64
2022/03/13 02:26:42;;;;;;;3.60;3.30;;;;;;;10.78;42.14;100541.91;1799153;79;20997;-64
2022/03/13 02:29:13;;;;;;;4.78;3.83;;;;;;;10.78;42.17;100536.59;1799273;79;21025;-65
2022/03/13 02:31:42;;;;;;;5.85;4.05;;;;;;;10.76;42.18;100543.89;1799276;79;21221;-64
2022/03/13 02:34:12;;;;;;;4.37;3.70;;;;;;;10.77;42.19;100543.38;1799703;79;21006;-64
2022/03/13 02:36:44;;;;;;;4.25;3.33;;;;;;;10.76;42.19;100547.88;1800561;78;21028;-65
2022/03/13 02:39:11;;;;;;;4.72;3.50;;;;;;;10.76;42.20;100553.69;1829876;78;21005;-65
2022/03/13 02:41:43;;;;;;;3.67;3.15;;;;;;;10.76;42.22;100555.02;1832011;78;20970;-65
2022/03/13 02:44:12;;;;;;;4.83;3.92;;;;;;;10.74;42.23;100552.50;1832281;78;21135;-63
2022/03/13 02:47:00;;;;;;;5.10;3.55;;;;;;;10.75;42.24;100561.30;1831943;78;21052;-64
2022/03/13 02:49:28;;;;;;;4.20;3.60;;;;;;;10.74;42.25;100561.80;1831966;77;21008;-64
2022/03/13 02:51:58;;;;;;;5.35;4.33;;;;;;;10.74;42.25;100558.29;1831962;77;21009;-65
2022/03/13 02:54:24;;;;;;;4.50;4.05;;;;;;;10.73;42.26;100564.11;1812367;78;21012;-65
2022/03/13 02:56:52;;;;;;;4.25;3.60;;;;;;;10.72;42.31;100558.46;1799283;79;21195;-65
2022/03/13 02:59:18;;;;;;;5.08;3.52;;;;;;;10.72;42.32;100569.56;1799650;79;21076;-65
2022/03/13 03:01:45;;;;;;;4.35;3.52;;;;;;;10.72;42.30;100568.23;1799347;79;21033;-64
2022/03/13 03:04:12;;;;;;;3.98;3.55;;;;;;;10.72;42.33;100569.09;1799258;79;20997;-64
2022/03/13 03:06:39;;;;;;;6.55;4.08;;;;;;;10.71;42.32;100575.38;1799613;79;21028;-64
2022/03/13 03:09:08;;;;;;;4.33;3.52;;;;;;;10.72;42.33;100578.86;1820370;78;21240;-64
2022/03/13 03:11:35;;;;;;;3.77;2.95;;;;;;;10.71;42.35;100583.85;1809670;78;21001;-65
2022/03/13 03:14:02;;;;;;;3.75;3.30;;;;;;;10.71;42.35;100581.20;1799277;79;21044;-65
2022/03/13 03:16:29;;;;;;;5.28;4.50;;;;;;;10.71;42.35;100579.86;1799191;79;21045;-64
2022/03/13 03:18:56;;;;;;;4.35;3.77;;;;;;;10.71;42.36;100581.20;1799361;79;21040;-63
2022/03/13 03:21:23;;;;;;;4.28;3.37;;;;;;;10.70;42.37;100589.66;1799201;79;21325;-64
2022/03/13 03:23:51;;;;;;;4.17;3.75;;;;;;;10.70;42.38;100582.16;1799188;79;20994;-64
2022/03/13 03:26:19;;;;;;;3.67;3.22;;;;;;;10.70;42.40;100593.66;1799264;79;21025;-64
2022/03/13 03:28:47;;;;;;;5.00;3.77;;;;;;;10.70;42.40;100588.80;1800303;78;20982;-63
2022/03/13 03:31:14;;;;;;;4.28;3.45;;;;;;;10.69;42.41;100601.27;1799209;79;21478;-64
2022/03/13 03:33:42;;;;;;;3.85;3.20;;;;;;;10.68;42.42;100595.63;1799206;79;21012;-64
2022/03/13 03:36:15;;;;;;;4.10;3.70;;;;;;;10.68;42.43;100598.28;1802523;78;21079;-65
2022/03/13 03:38:43;;;;;;;5.05;3.70;;;;;;;10.67;42.43;100603.23;1832018;77;21021;-64
2022/03/13 03:41:09;;;;;;;4.92;3.70;;;;;;;10.67;42.43;100601.91;1831991;77;20961;-65
2022/03/13 03:43:36;;;;;;;4.22;3.62;;;;;;;10.66;42.45;100606.86;1831938;78;21068;-64
2022/03/13 03:46:02;;;;;;;4.37;3.42;;;;;;;10.66;42.46;100608.69;1831012;78;21164;-65
2022/03/13 03:48:30;;;;;;;4.45;3.83;;;;;;;10.66;42.46;100614.83;1831908;77;21009;-65
2022/03/13 03:50:58;;;;;;;3.98;3.22;;;;;;;10.65;42.48;100607.86;1831986;78;21049;-64
2022/03/13 03:53:24;;;;;;;3.95;3.55;;;;;;;10.65;42.48;100610.52;1831815;78;21087;-65
2022/03/13 03:55:51;;;;;;;4.15;3.45;;;;;;;10.64;42.48;100610.16;1832154;77;21009;-65
2022/03/13 03:58:21;;;;;;;4.12;3.60;;;;;;;10.64;42.48;100614.15;1831892;78;21888;-66
2022/03/13 04:00:48;;;;;;;3.92;3.35;;;;;;;10.63;42.52;100617.30;1831984;77;21060;-65
2022/03/13 04:03:15;;;;;;;4.22;3.25;;;;;;;10.63;42.52;100612.49;1831067;77;21025;-65
2022/03/13 04:05:43;;;;;;;5.58;4.17;;;;;;;10.62;42.52;100615.65;1831920;77;21006;-64
2022/03/13 04:08:09;;;;;;;4.33;3.55;;;;;;;10.62;42.53;100611.66;1832354;78;21021;-64
2022/03/13 04:10:37;;;;;;;4.45;3.52;;;;;;;10.62;42.54;100611.66;1831892;77;21406;-65
2022/03/13 04:13:04;;;;;;;3.58;3.27;;;;;;;10.61;42.55;100609.98;1831964;78;21154;-64
2022/03/13 04:15:31;;;;;;;4.97;3.60;;;;;;;10.60;42.56;100617.62;1832025;76;20996;-65
2022/03/13 04:18:00;;;;;;;4.40;3.25;;;;;;;10.60;42.56;100616.76;1831213;78;20982;-66
2022/03/13 04:20:28;;;;;;;5.15;3.60;;;;;;;10.60;42.58;100623.41;1799229;79;21049;-63
2022/03/13 04:22:55;;;;;;;3.90;3.50;;;;;;;10.59;42.58;100621.74;1799316;79;21492;-65
2022/03/13 04:25:25;;;;;;;3.90;3.37;;;;;;;10.59;42.62;100631.05;1799187;79;20986;-64
2022/03/13 04:27:52;;;;;;;4.17;3.50;;;;;;;10.58;42.63;100630.19;1799174;79;21040;-64
2022/03/13 04:30:20;;;;;;;3.80;3.40;;;;;;;10.58;42.62;100634.17;1799179;79;21060;-64
2022/03/13 04:32:48;;;;;;;4.28;3.60;;;;;;;10.58;42.64;100632.02;1799325;79;21020;-64
2022/03/13 04:35:15;;;;;;;4.60;3.80;;;;;;;10.58;42.64;100637.33;1800186;78;21225;-66
2022/03/13 04:37:41;;;;;;;5.03;3.45;;;;;;;10.57;42.64;100638.33;1823100;78;21005;-64
2022/03/13 04:40:12;;;;;;;4.50;3.83;;;;;;;10.58;42.64;100639.98;1831738;78;21504;-64
2022/03/13 04:42:39;;;;;;;4.22;3.58;;;;;;;10.57;42.65;100640.98;1831892;78;21002;-64
2022/03/13 04:45:07;;;;;;;4.45;3.70;;;;;;;10.56;42.67;100645.44;1831954;78;21075;-63
2022/03/13 04:47:35;;;;;;;5.05;4.00;;;;;;;10.56;42.67;100656.56;1832175;78;21087;-63
2022/03/13 04:50:01;;;;;;;3.92;3.30;;;;;;;10.55;42.67;100661.55;1831880;78;21061;-64
2022/03/13 04:52:28;;;;;;;4.08;3.67;;;;;;;10.55;42.68;100666.86;1830514;78;21064;-65
2022/03/13 04:54:55;;;;;;;4.72;3.60;;;;;;;10.54;42.71;100659.36;1831958;78;20986;-65
2022/03/13 04:57:21;;;;;;;3.98;3.30;;;;;;;10.55;42.69;100665.53;1832206;77;21513;-64
2022/03/13 04:59:47;;;;;;;4.37;3.60;;;;;;;10.54;42.69;100675.30;1831886;77;21886;-65
2022/03/13 05:02:14;;;;;;;4.05;3.52;;;;;;;10.55;42.71;100678.81;1831802;77;21033;-64
2022/03/13 05:04:43;;;;;;;4.62;3.80;;;;;;;10.55;42.72;100680.15;1831877;77;21056;-64
2022/03/13 05:07:10;;;;;;;4.47;3.50;;;;;;;10.54;42.73;100683.77;1831830;77;21038;-64
2022/03/13 05:09:37;;;;;;;4.20;3.55;;;;;;;10.54;42.74;100686.43;1830992;77;21080;-65
2022/03/13 05:12:09;;;;;;;4.72;3.50;;;;;;;10.53;42.75;100687.42;1831907;77;21317;-65
2022/03/13 05:14:34;;;;;;;4.70;3.77;;;;;;;10.53;42.75;100688.75;1831483;77;21009;-64
2022/03/13 05:17:00;;;;;;;5.53;4.35;;;;;;;10.53;42.74;100684.77;1831856;78;21029;-65
2022/03/13 05:19:26;;;;;;;3.77;3.40;;;;;;;10.53;42.77;100694.07;1831765;77;21014;-65
2022/03/13 05:21:53;;;;;;;4.62;3.62;;;;;;;10.52;42.76;100693.20;1831949;78;21085;-64
2022/03/13 05:24:20;;;;;;;4.17;3.33;;;;;;;10.52;42.78;100701.17;1831942;78;21800;-63
2022/03/13 05:26:46;;;;;;;5.45;4.05;;;;;;;10.52;42.80;100697.20;1820680;78;21721;-64
2022/03/13 05:29:13;;;;;;;5.00;3.62;;;;;;;10.52;42.81;100710.48;1799325;79;21064;-64
2022/03/13 05:31:43;;;;;;;4.40;3.62;;;;;;;10.53;42.81;100711.34;1799128;79;21025;-66
2022/03/13 05:34:10;;;;;;;5.50;3.65;;;;;;;10.52;42.82;100706.99;1799428;79;21041;-64
2022/03/13 05:36:38;;;;;;;4.72;3.72;;;;;;;10.52;42.84;100716.30;1808621;78;21132;-65
2022/03/13 05:39:05;;;;;;;4.53;3.50;;;;;;;10.51;42.87;100719.45;1831847;78;21507;-64
2022/03/13 05:41:33;;;;;;;4.37;3.92;;;;;;;10.52;42.83;100729.08;1831850;78;21526;-64
2022/03/13 05:43:59;;;;;;;5.72;3.55;;;;;;;10.52;42.85;100728.25;1830579;78;21537;-64
2022/03/13 05:46:26;;;;;;;4.33;3.50;;;;;;;10.52;42.85;100730.91;1831906;78;20990;-65
2022/03/13 05:48:52;;;;;;;4.97;3.42;;;;;;;10.51;42.85;100726.09;1831893;78;21215;-64
2022/03/13 05:51:20;;;;;;;4.35;3.52;;;;;;;10.52;42.89;100738.87;1831652;77;20989;-64
2022/03/13 05:53:47;;;;;;;4.58;3.92;;;;;;;10.52;42.89;100748.17;1831951;78;21080;-64
2022/03/13 05:56:15;;;;;;;4.28;3.33;;;;;;;10.52;42.90;100745.02;1831817;77;21053;-64
2022/03/13 05:58:42;;;;;;;4.47;3.90;;;;;;;10.52;42.89;100759.63;1831799;78;21029;-65
2022/03/13 06:01:09;;;;;;;3.80;3.40;;;;;;;10.53;42.87;100748.53;1831027;78;21220;-65
2022/03/13 06:03:37;;;;;;;4.28;3.50;;;;;;;10.52;42.90;100756.97;1831754;77;21006;-64
2022/03/13 06:06:04;;;;;;;3.98;3.58;;;;;;;10.52;42.91;100757.47;1831782;78;21442;-64
2022/03/13 06:08:34;;;;;;;3.83;3.30;;;;;;;10.53;42.91;100759.16;1831720;77;21025;-64
2022/03/13 06:11:01;;;;;;;3.90;3.35;;;;;;;10.52;42.92;100772.08;1831845;77;20966;-64
2022/03/13 06:13:28;;;;;;;4.03;3.25;;;;;;;10.52;42.94;100778.23;1831713;78;21314;-64
2022/03/13 06:15:57;;;;;;;4.05;3.40;;;;;;;10.52;42.95;100776.90;1832012;77;21025;-63
2022/03/13 06:18:32;;;;;;;4.10;3.70;;;;;;;10.53;42.94;100787.06;1830760;77;21001;-65
2022/03/13 06:20:55;;;;;;;3.92;3.40;;;;;;;10.53;42.94;100789.72;1831665;77;21560;-64
2022/03/13 06:23:22;;;;;;;4.10;3.52;;;;;;;10.53;42.95;100792.38;1831769;78;20981;-65
2022/03/13 06:26:58;;;;;;;5.78;3.75;;;;;;;10.58;42.95;100798.91;1880772;76;28023;-64
2022/03/13 06:29:25;;;;;;;3.50;3.20;;;;;;;10.54;42.95;100800.67;1860251;77;21048;-64
2022/03/13 06:31:52;;;;;;;3.90;3.15;;;;;;;10.55;42.93;100805.86;1860347;77;21226;-65
2022/03/13 06:34:19;;;;;;;4.55;3.58;;;;;;;10.55;42.93;100804.52;1858715;77;21548;-64
2022/03/13 06:36:46;;;;;;;3.83;3.42;;;;;;;10.55;42.93;100805.02;1850801;77;20972;-66
2022/03/13 06:39:13;;;;;;;4.42;3.65;;;;;;;10.55;42.96;100810.34;1850566;77;21023;-65
2022/03/13 06:41:39;;;;;;;4.33;3.42;;;;;;;10.55;42.96;100813.00;1850799;77;21042;-63
2022/03/13 06:44:06;;;;;;;4.22;3.67;;;;;;;10.54;42.97;100816.13;1850962;77;21202;-64
2022/03/13 06:46:34;;;;;;;4.35;3.40;;;;;;;10.55;42.97;100813.83;1850846;77;20973;-65
2022/03/13 06:49:05;;;;;;;3.92;3.52;;;;;;;10.56;42.96;100829.27;1850850;77;21486;-64
2022/03/13 06:51:32;;;;;;;4.78;3.52;;;;;;;10.56;42.96;100815.98;1850684;77;21045;-64
2022/03/13 06:53:59;;;;;;;3.95;3.52;;;;;;;10.55;42.97;100821.80;1850662;77;21080;-64
2022/03/13 06:56:25;;;;;;;4.45;3.25;;;;;;;10.56;43.00;100826.11;1850659;77;22759;-65
2022/03/13 06:58:52;;;;;;;4.37;3.35;;;;;;;10.56;42.99;100825.28;1850656;77;21521;-65
2022/03/13 07:01:19;;;;;;;4.22;3.80;;;;;;;10.58;42.98;100828.63;1850567;77;21041;-65
2022/03/13 07:03:46;;;;;;;4.12;3.50;;;;;;;10.57;43.00;100829.63;1850782;77;20986;-66
2022/03/13 07:06:12;;;;;;;5.15;3.67;;;;;;;10.58;42.98;100829.47;1850502;77;20970;-66
2022/03/13 07:08:40;;;;;;;3.90;3.50;;;;;;;10.58;42.98;100840.09;1850538;77;21447;-64
2022/03/13 07:11:07;;;;;;;3.95;3.42;;;;;;;10.59;42.99;100842.28;1778211;80;21018;-64
2022/03/13 07:13:34;;;;;;;4.78;3.92;;;;;;;10.60;42.99;100851.91;1782264;80;20986;-65
2022/03/13 07:16:03;;;;;;;4.10;3.45;;;;;;;10.59;42.97;100850.25;1780492;80;21049;-64
2022/03/13 07:18:31;;;;;;;4.12;3.55;;;;;;;10.60;42.98;100851.91;1762580;81;21041;-63
2022/03/13 07:20:57;;;;;;;4.00;3.30;;;;;;;10.60;42.99;100855.44;1762665;81;21251;-65
2022/03/13 07:23:24;;;;;;;4.55;3.58;;;;;;;10.60;42.98;100862.08;1762705;81;21009;-65
2022/03/13 07:25:51;;;;;;;4.67;3.45;;;;;;;10.61;43.01;100861.58;1763526;80;21014;-65
2022/03/13 07:28:18;;;;;;;3.87;3.02;;;;;;;10.60;42.99;100868.72;1765218;81;21486;-63
2022/03/13 07:30:46;;;;;;;3.87;3.47;;;;;;;10.61;43.00;100870.38;1836070;77;21052;-65
2022/03/13 07:33:12;;;;;;;3.87;3.30;;;;;;;10.61;42.99;100872.21;1848533;77;21196;-66
2022/03/13 07:35:39;;;;;;;3.70;3.05;;;;;;;10.60;43.00;100870.05;1848710;77;21025;-65
2022/03/13 07:38:06;;;;;;;3.40;2.92;;;;;;;10.61;42.99;100868.22;1848049;77;21462;-65
2022/03/13 07:40:33;;;;;;;4.70;3.67;;;;;;;10.61;42.99;100873.54;1848113;77;21536;-64
2022/03/13 07:43:01;;;;;;;4.25;3.58;;;;;;;10.60;43.00;100878.02;1843107;77;21007;-65
2022/03/13 07:45:27;;;;;;;3.25;2.67;;;;;;;10.61;43.01;100876.20;1838020;78;21260;-64
2022/03/13 07:47:55;;;;;;;3.98;3.20;;;;;;;10.61;43.01;100882.34;1764153;81;21038;-65
2022/03/13 07:50:21;;;;;;;4.15;3.40;;;;;;;10.60;43.04;100879.35;1765262;81;21035;-65
2022/03/13 07:52:49;;;;;;;3.83;3.30;;;;;;;10.61;43.04;100881.52;1838114;77;21057;-64
2022/03/13 07:55:16;;;;;;;4.37;3.15;;;;;;;10.61;43.01;100878.36;1838143;78;21003;-65
2022/03/13 07:57:43;;;;;;;3.60;3.05;;;;;;;10.62;43.03;100878.72;1764129;81;21236;-65
2022/03/13 08:00:12;;;;;;;3.35;2.90;;;;;;;10.62;43.01;100884.50;1756385;80;21025;-64
2022/03/13 08:02:44;;;;;;;3.35;2.95;;;;;;;10.63;43.05;100890.18;1746152;82;21042;-65
2022/03/13 08:05:09;;;;;;;3.40;3.00;;;;;;;10.63;43.03;100890.18;1746152;82;21106;-64
2022/03/13 08:07:36;;;;;;;3.62;3.15;;;;;;;10.64;43.04;100886.53;1814590;78;20998;-65
2022/03/13 08:10:04;;;;;;;4.60;3.15;;;;;;;10.64;43.04;100894.50;1814782;78;21216;-65
2022/03/13 08:12:31;;;;;;;3.22;2.92;;;;;;;10.65;43.05;100896.69;1814649;79;21033;-64
2022/03/13 08:14:59;;;;;;;4.05;3.30;;;;;;;10.65;43.06;100896.69;1814588;78;21080;-65
2022/03/13 08:17:25;;;;;;;3.85;3.00;;;;;;;10.66;43.04;100897.02;1830650;77;21057;-65
2022/03/13 08:19:54;;;;;;;4.90;3.20;;;;;;;10.66;43.05;100894.36;1839973;78;21473;-65
2022/03/13 08:22:21;;;;;;;3.85;3.17;;;;;;;10.66;43.04;100900.52;1840054;78;21226;-65
2022/03/13 08:24:47;;;;;;;3.95;3.27;;;;;;;10.67;43.05;100911.50;1839817;77;21010;-64
2022/03/13 08:27:13;;;;;;;3.83;3.02;;;;;;;10.68;43.06;100901.70;1844829;77;21021;-64
2022/03/13 08:29:40;;;;;;;3.47;2.80;;;;;;;10.68;43.07;100903.03;1846121;77;21042;-64
2022/03/13 08:32:08;;;;;;;3.75;3.02;;;;;;;10.68;43.04;100904.36;1845766;77;21651;-66
2022/03/13 08:34:38;;;;;;;4.08;3.27;;;;;;;10.69;43.07;100908.72;1845665;77;21211;-65
2022/03/13 08:37:04;;;;;;;3.37;3.00;;;;;;;10.69;43.04;100910.88;1845481;77;21138;-65
2022/03/13 08:39:32;;;;;;;3.58;3.00;;;;;;;10.69;43.06;100916.19;1832084;77;21070;-65
2022/03/13 08:41:58;;;;;;;4.05;3.30;;;;;;;10.71;43.06;100922.70;1822889;78;21017;-64
2022/03/13 08:44:25;;;;;;;3.15;2.80;;;;;;;10.70;43.07;100928.52;1823328;78;21083;-65
2022/03/13 08:46:51;;;;;;;3.30;2.83;;;;;;;10.71;43.07;100934.66;1822988;78;21128;-65
2022/03/13 08:49:17;;;;;;;3.52;3.20;;;;;;;10.70;43.07;100935.16;1822828;78;20988;-65
2022/03/13 08:51:46;;;;;;;2.95;2.65;;;;;;;10.72;43.07;100934.99;1848571;77;20971;-64
2022/03/13 08:54:16;;;;;;;3.20;2.72;;;;;;;10.72;43.07;100934.99;1856813;77;20966;-64
2022/03/13 08:56:46;;;;;;;3.40;3.00;;;;;;;10.71;43.08;100939.48;1856876;77;21548;-65
2022/03/13 08:59:15;;;;;;;3.67;3.02;;;;;;;10.73;43.06;100928.71;1856662;77;21286;-64
2022/03/13 09:01:42;;;;;;;3.05;2.70;;;;;;;10.73;43.10;100942.83;1856674;77;21013;-64
2022/03/13 09:04:09;;;;;;;3.22;2.87;;;;;;;10.73;43.07;100940.67;1856754;77;21009;-65
2022/03/13 09:06:39;;;;;;;3.60;2.85;;;;;;;10.74;43.07;100947.19;1856792;77;21072;-64
2022/03/13 09:09:04;;;;;;;3.27;2.85;;;;;;;10.74;43.07;100948.52;1846423;77;21013;-66
2022/03/13 09:11:34;;;;;;;3.90;3.05;;;;;;;10.75;43.09;100954.66;1845744;77;21015;-64
2022/03/13 09:14:01;;;;;;;3.12;2.83;;;;;;;10.76;43.08;100953.70;1845770;77;21576;-65
2022/03/13 09:16:28;;;;;;;4.17;3.17;;;;;;;10.74;43.07;100953.83;1848687;77;20978;-65
2022/03/13 09:18:55;;;;;;;3.25;2.92;;;;;;;10.75;43.10;100954.16;1856718;77;21001;-64
2022/03/13 09:21:22;;;;;;;3.62;3.08;;;;;;;10.76;43.09;100955.86;1856680;77;21524;-64
2022/03/13 09:23:50;;;;;;;3.83;3.27;;;;;;;10.77;43.08;100960.67;1856734;77;21069;-64
2022/03/13 09:26:16;;;;;;;3.92;3.20;;;;;;;10.76;43.06;100957.19;1828591;77;22074;-66
2022/03/13 09:28:44;;;;;;;3.27;2.98;;;;;;;10.77;43.08;100956.69;1792971;80;21103;-65
2022/03/13 09:31:11;;;;;;;4.47;3.20;;;;;;;10.77;43.08;100955.36;1793035;79;21071;-66
2022/03/13 09:33:37;;;;;;;3.17;2.70;;;;;;;10.78;43.09;100967.19;1793023;80;21010;-65
2022/03/13 09:36:04;;;;;;;3.60;3.12;;;;;;;10.77;43.07;100965.49;1793029;80;22132;-65
2022/03/13 09:38:31;;;;;;;3.50;2.80;;;;;;;10.79;43.09;100958.72;1792804;80;21021;-65
2022/03/13 09:40:58;;;;;;;3.27;2.98;;;;;;;10.79;43.09;100964.86;1793032;79;21048;-64
2022/03/13 09:43:24;;;;;;;3.50;2.90;;;;;;;10.79;43.09;100966.19;1818108;78;21007;-64
2022/03/13 09:45:51;;;;;;;3.35;3.05;;;;;;;10.81;43.10;100968.72;1808771;79;21014;-65
2022/03/13 09:48:19;;;;;;;3.02;2.52;;;;;;;10.81;43.12;100972.20;1808738;79;21229;-65
2022/03/13 09:50:46;;;;;;;3.85;2.87;;;;;;;10.82;43.12;100977.05;1808713;79;21058;-65
2022/03/13 09:53:12;;;;;;;4.08;2.58;;;;;;;10.83;43.12;100976.06;1808795;79;20998;-65
2022/03/13 09:55:39;;;;;;;3.30;3.00;;;;;;;10.85;43.08;100982.58;1808804;79;21029;-64
2022/03/13 09:58:08;;;;;;;3.42;2.98;;;;;;;10.85;43.10;100984.73;1806878;79;20994;-65
2022/03/13 10:00:36;;;;;;;3.58;2.70;;;;;;;10.86;43.11;100985.09;1776860;80;21858;-65
2022/03/13 10:03:08;;;;;;;3.22;2.90;;;;;;;10.86;43.10;100986.42;1776883;80;20994;-66
2022/03/13 10:05:47;;;;;;;3.30;3.00;;;;;;;10.87;43.10;100985.92;1776395;80;21018;-65
2022/03/13 10:08:15;;;;;;;3.95;2.90;;;;;;;10.89;43.09;100987.95;1777020;80;20992;-65
2022/03/13 10:10:48;;;;;;;3.47;3.02;;;;;;;10.89;43.10;100984.80;1776991;80;21112;-65
2022/03/13 10:13:36;;;;;;;3.05;2.30;;;;;;;10.87;43.10;100982.77;1776194;80;21159;-66
2022/03/13 10:16:05;;;;;;;3.70;3.20;;;;;;;10.89;43.10;100990.12;1781072;79;21029;-65
2022/03/13 10:18:31;;;;;;;2.47;2.12;;;;;;;10.89;43.09;100988.78;1800864;79;21015;-66
2022/03/13 10:21:06;;;;;;;3.98;2.95;;;;;;;10.88;43.10;100991.11;1765449;81;21012;-66
2022/03/13 10:23:33;;;;;;;3.70;2.83;;;;;;;10.91;43.09;100999.29;1788124;79;21069;-65
2022/03/13 10:26:01;;;;;;;3.15;2.85;;;;;;;10.90;43.09;100992.31;1792428;78;21224;-64
2022/03/13 10:28:35;;;;;;;3.15;2.80;;;;;;;10.90;43.09;100997.62;1822453;78;21490;-64
2022/03/13 10:31:06;;;;;;;2.65;2.45;;;;;;;10.90;43.08;101003.77;1787681;80;21050;-64
2022/03/13 10:33:49;;;;;;;2.85;2.62;;;;;;;10.90;43.09;101001.11;1787421;80;20990;-65
2022/03/13 10:36:21;;;;;;;3.25;2.60;;;;;;;10.90;43.10;100998.95;1789540;80;21010;-65
2022/03/13 10:38:49;;;;;;;2.98;2.50;;;;;;;10.90;43.08;101003.77;1822630;78;21079;-65
2022/03/13 10:41:16;;;;;;;2.98;2.67;;;;;;;10.90;43.08;101001.61;1821774;78;20986;-65
2022/03/13 10:43:57;;;;;;;2.75;2.55;;;;;;;10.90;43.07;101006.94;1822012;78;21021;-64
2022/03/13 10:46:28;;;;;;;2.80;2.35;;;;;;;10.89;43.09;101003.41;1821837;78;21037;-65
2022/03/13 10:48:56;;;;;;;3.20;2.52;;;;;;;10.90;43.09;101006.94;1789421;78;21070;-65
2022/03/13 10:51:45;;;;;;;3.20;2.90;;;;;;;10.89;43.09;101003.91;1821219;78;21239;-64
2022/03/13 10:54:29;;;;;;;3.10;2.70;;;;;;;10.89;43.08;101006.07;1821866;78;21037;-65
2022/03/13 10:57:11;;;;;;;3.40;2.70;;;;;;;10.88;43.09;101007.06;1822310;78;20997;-65
2022/03/13 10:59:40;;;;;;;3.02;2.40;;;;;;;10.89;43.09;101011.88;1821745;78;21050;-65
2022/03/13 11:02:14;;;;;;;3.42;2.70;;;;;;;10.89;43.09;101018.03;1822382;78;21026;-65
2022/03/13 11:04:53;;;;;;;2.45;2.10;;;;;;;10.88;43.10;101016.37;1821973;78;21206;-64
2022/03/13 11:07:20;;;;;;;3.50;2.92;;;;;;;10.89;43.09;101015.88;1815496;78;21002;-66
2022/03/13 11:09:46;;;;;;;3.47;2.83;;;;;;;10.89;43.09;101017.20;1811268;79;21030;-64
2022/03/13 11:12:20;;;;;;;2.95;2.65;;;;;;;10.88;43.09;101013.70;1811261;79;20991;-66
2022/03/13 11:14:51;;;;;;;3.00;2.60;;;;;;;10.89;43.10;101014.55;1811400;79;21010;-65
2022/03/13 11:17:20;;;;;;;3.08;2.77;;;;;;;10.90;43.10;101014.91;1789843;80;21783;-66
2022/03/13 11:19:52;;;;;;;2.98;2.47;;;;;;;10.89;43.06;101013.22;1789700;80;21001;-65
2022/03/13 11:22:20;;;;;;;3.52;2.80;;;;;;;10.91;43.09;101016.57;1789660;80;21045;-65
2022/03/13 11:24:52;;;;;;;2.70;2.50;;;;;;;10.90;43.09;101016.23;1807087;78;21057;-65
2022/03/13 11:27:19;;;;;;;3.08;2.45;;;;;;;10.90;43.10;101022.38;1809297;79;21081;-65
2022/03/13 11:29:50;;;;;;;2.55;2.10;;;;;;;10.91;43.08;101017.90;1808297;79;21898;-65